Time;durP1;ratioP1;P1;durP2;ratioP2;P2;SDS_P1;SDS_P2;PMS_P1;PMS_P2;Temp;Humidity;BMP_temperature;BMP_pressure;BME280_temperature;BME280_humidity;BME280_pressure;Samples;Min_cycle;Max_cycle;Signal;HPM_P1;HPM_P2
2023/04/28 00:01:10;;;;;;;4.22;2.28;;;;;;;12.31;86.25;95811.03;5049337;28;20028;-73
2023/04/28 00:03:36;;;;;;;2.15;1.60;;;;;;;12.34;84.10;95804.59;5051868;28;20060;-73
2023/04/28 00:06:02;;;;;;;1.90;1.67;;;;;;;12.34;83.30;95809.88;5048686;28;20049;-72
2023/04/28 00:08:27;;;;;;;3.83;1.80;;;;;;;12.35;83.88;95800.16;5049889;28;20433;-72
2023/04/28 00:10:53;;;;;;;3.53;1.75;;;;;;;12.35;84.91;95800.16;5049650;28;20025;-72
2023/04/28 00:13:18;;;;;;;1.80;1.70;;;;;;;12.34;86.67;95807.22;5063705;28;20025;-72
2023/04/28 00:15:44;;;;;;;2.45;2.25;;;;;;;12.32;86.33;95807.41;5051491;28;20021;-72
2023/04/28 00:18:09;;;;;;;5.72;2.53;;;;;;;12.33;85.40;95808.22;5053711;28;20028;-73
2023/04/28 00:20:35;;;;;;;6.82;2.35;;;;;;;12.38;86.36;95810.41;5049131;28;20033;-72
2023/04/28 00:23:00;;;;;;;2.40;2.20;;;;;;;12.44;86.38;95815.94;5053576;28;20373;-73
2023/04/28 00:25:26;;;;;;;1.88;1.77;;;;;;;12.39;87.34;95812.91;5051947;28;20378;-73
2023/04/28 00:27:51;;;;;;;2.10;2.00;;;;;;;12.38;89.29;95810.41;5052297;28;20024;-73
2023/04/28 00:30:17;;;;;;;2.25;2.10;;;;;;;12.34;89.01;95807.22;5050344;28;20032;-72
2023/04/28 00:32:42;;;;;;;2.42;2.10;;;;;;;12.35;90.94;95802.78;5051028;28;20043;-72
2023/04/28 00:35:08;;;;;;;2.28;2.08;;;;;;;12.34;90.17;95812.50;5045153;28;20404;-72
2023/04/28 00:37:37;;;;;;;5.50;2.47;;;;;;;12.37;88.45;95811.38;5054211;28;20028;-72
2023/04/28 00:40:02;;;;;;;2.40;2.20;;;;;;;12.38;87.99;95805.97;5051330;28;20073;-72
2023/04/28 00:42:28;;;;;;;2.70;2.35;;;;;;;12.37;87.73;95808.75;5053105;28;20051;-73
2023/04/28 00:44:53;;;;;;;2.03;1.92;;;;;;;12.39;87.31;95797.06;5044065;28;20078;-72
2023/04/28 00:47:19;;;;;;;2.05;1.90;;;;;;;12.44;87.63;95793.97;5052077;28;20028;-73
2023/04/28 00:49:44;;;;;;;4.22;2.30;;;;;;;12.44;89.44;95788.69;5051680;28;20052;-73
2023/04/28 00:52:10;;;;;;;2.70;2.50;;;;;;;12.42;89.40;95785.34;5052313;28;20040;-73
2023/04/28 00:54:36;;;;;;;2.95;2.70;;;;;;;12.40;88.82;95784.69;5048691;28;20035;-73
2023/04/28 00:57:02;;;;;;;3.78;2.88;;;;;;;12.43;88.70;95787.03;5050808;28;20029;-73
2023/04/28 00:59:30;;;;;;;3.53;2.95;;;;;;;12.48;88.58;95778.66;5047115;28;20040;-73
2023/04/28 01:01:56;;;;;;;3.45;3.15;;;;;;;12.53;87.26;95784.31;5053780;28;20053;-73
2023/04/28 01:04:22;;;;;;;5.88;3.65;;;;;;;12.53;87.03;95779.88;5045882;28;20028;-73
2023/04/28 01:06:49;;;;;;;4.05;3.60;;;;;;;12.53;88.79;95781.66;5053037;28;20055;-73
2023/04/28 01:09:15;;;;;;;3.78;3.47;;;;;;;12.60;86.77;95788.00;5057428;28;20095;-73
2023/04/28 01:11:41;;;;;;;3.00;2.38;;;;;;;12.67;86.54;95790.84;5051490;28;20033;-73
2023/04/28 01:14:06;;;;;;;2.30;2.20;;;;;;;12.58;89.70;95788.16;5049631;28;20029;-73
2023/04/28 01:16:32;;;;;;;4.72;1.83;;;;;;;12.64;91.27;95792.00;5052338;28;20029;-71
2023/04/28 01:18:59;;;;;;;4.82;2.00;;;;;;;12.63;92.21;95792.16;5054911;28;20047;-73
2023/04/28 01:21:28;;;;;;;1.77;1.67;;;;;;;12.57;91.62;95789.13;5051969;28;20146;-73
2023/04/28 01:23:55;;;;;;;3.13;1.85;;;;;;;12.49;94.42;95789.06;5055250;28;20436;-73
2023/04/28 01:26:21;;;;;;;2.40;1.92;;;;;;;12.44;94.13;95794.81;5056579;28;20478;-72
2023/04/28 01:28:47;;;;;;;2.20;2.00;;;;;;;12.40;92.99;95798.72;5057381;28;20059;-73
2023/04/28 01:31:12;;;;;;;1.70;1.60;;;;;;;12.38;91.84;95805.97;5055470;28;20048;-72
2023/04/28 01:33:37;;;;;;;1.80;1.70;;;;;;;12.37;91.96;95796.38;5051346;28;20025;-73
2023/04/28 01:36:03;;;;;;;3.38;2.00;;;;;;;12.37;92.35;95796.38;5058102;28;20370;-73
2023/04/28 01:38:28;;;;;;;1.88;1.77;;;;;;;12.35;92.01;95794.88;5057922;28;20114;-73
2023/04/28 01:40:54;;;;;;;2.58;1.70;;;;;;;12.32;92.59;95793.34;5055069;28;20429;-73
2023/04/28 01:43:19;;;;;;;2.75;2.03;;;;;;;12.31;92.15;95787.25;5055381;28;20399;-73
2023/04/28 01:45:45;;;;;;;5.50;2.40;;;;;;;12.34;91.66;95798.50;5054979;28;20402;-73
2023/04/28 01:48:10;;;;;;;2.33;2.22;;;;;;;12.32;91.68;95802.13;5055760;28;20092;-73
2023/04/28 01:50:36;;;;;;;3.03;2.25;;;;;;;12.37;90.35;95798.19;5052576;28;20025;-73
2023/04/28 01:53:01;;;;;;;3.35;2.10;;;;;;;12.39;89.29;95807.63;5053563;28;20040;-73
2023/04/28 01:55:26;;;;;;;3.00;1.98;;;;;;;12.41;88.43;95808.31;5051514;28;20367;-73
2023/04/28 01:57:52;;;;;;;3.40;2.22;;;;;;;12.35;92.16;95810.72;5049361;28;20033;-73
2023/04/28 02:00:17;;;;;;;2.00;1.90;;;;;;;12.24;92.30;95809.94;5053274;28;20112;-73
2023/04/28 02:02:43;;;;;;;1.83;1.73;;;;;;;12.20;92.38;95815.69;5053765;28;20021;-73
2023/04/28 02:05:08;;;;;;;1.85;1.80;;;;;;;12.15;91.82;95811.66;5055173;28;20363;-72
2023/04/28 02:07:33;;;;;;;2.65;2.08;;;;;;;12.11;92.05;95805.03;5052048;28;20060;-72
2023/04/28 02:09:59;;;;;;;3.15;1.90;;;;;;;12.14;91.46;95810.00;5051307;28;20033;-73
2023/04/28 02:12:24;;;;;;;1.85;1.75;;;;;;;12.16;91.15;95804.59;5047466;28;20152;-73
2023/04/28 02:14:50;;;;;;;1.70;1.60;;;;;;;12.18;91.06;95813.19;5047168;28;20087;-73
2023/04/28 02:17:15;;;;;;;2.10;2.00;;;;;;;12.18;92.58;95808.75;5051629;28;21102;-73
2023/04/28 02:19:41;;;;;;;6.85;1.90;;;;;;;12.15;93.03;95813.47;5054525;28;20031;-73
2023/04/28 02:22:06;;;;;;;2.22;1.98;;;;;;;12.16;92.76;95815.13;5049377;28;20029;-73
2023/04/28 02:24:36;;;;;;;4.68;2.15;;;;;;;12.15;92.44;95814.28;5055928;28;20075;-73
2023/04/28 02:27:03;;;;;;;2.50;2.00;;;;;;;12.14;93.35;95817.09;5054274;28;20425;-73
2023/04/28 02:29:29;;;;;;;3.85;2.13;;;;;;;12.08;92.46;95812.44;5056098;28;20100;-73
2023/04/28 02:31:54;;;;;;;2.35;2.00;;;;;;;12.07;92.57;95811.59;5054173;28;20021;-73
2023/04/28 02:34:20;;;;;;;4.45;1.98;;;;;;;12.06;92.82;95809.09;5050246;28;20074;-73
2023/04/28 02:36:47;;;;;;;2.08;1.98;;;;;;;12.00;92.76;95811.31;5048436;28;20052;-73
2023/04/28 02:39:12;;;;;;;2.45;1.98;;;;;;;11.96;92.23;95807.31;5046784;28;20052;-73
2023/04/28 02:41:38;;;;;;;2.05;1.88;;;;;;;11.93;92.63;95804.13;5054530;28;20084;-73
2023/04/28 02:44:03;;;;;;;2.42;2.10;;;;;;;11.89;92.97;95800.97;5068706;28;20046;-73
2023/04/28 02:46:29;;;;;;;3.15;2.90;;;;;;;11.85;94.69;95804.88;5050645;28;20017;-73
2023/04/28 02:48:54;;;;;;;4.18;2.72;;;;;;;11.75;95.22;95799.66;5051540;28;20630;-73
2023/04/28 02:51:19;;;;;;;2.53;2.33;;;;;;;11.63;95.53;95795.53;5053772;28;20032;-73
2023/04/28 02:53:45;;;;;;;5.05;2.08;;;;;;;11.57;95.61;95796.94;5051611;28;20130;-73
2023/04/28 02:56:10;;;;;;;3.58;2.20;;;;;;;11.58;94.54;95802.09;5052900;28;20832;-73
2023/04/28 02:58:36;;;;;;;1.45;1.42;;;;;;;11.59;93.90;95798.47;5053756;28;20025;-73
2023/04/28 03:01:01;;;;;;;2.17;2.00;;;;;;;11.64;93.26;95790.13;5052369;28;20048;-73
2023/04/28 03:03:27;;;;;;;2.03;1.80;;;;;;;11.60;93.81;95788.75;5050761;28;20036;-73
2023/04/28 03:05:52;;;;;;;3.38;1.75;;;;;;;11.60;94.45;95789.59;5047001;28;20037;-73
2023/04/28 03:08:19;;;;;;;3.97;2.15;;;;;;;11.58;94.91;95790.69;5051805;28;20074;-73
2023/04/28 03:10:45;;;;;;;3.47;2.90;;;;;;;11.46;98.17;95790.91;5046595;28;20079;-73
2023/04/28 03:13:10;;;;;;;6.60;2.40;;;;;;;11.41;98.73;95803.69;5046555;28;20024;-74
2023/04/28 03:15:36;;;;;;;3.17;2.15;;;;;;;11.45;97.91;95812.13;5052224;28;20024;-72
2023/04/28 03:18:01;;;;;;;2.95;1.95;;;;;;;11.45;98.09;95798.94;5055696;28;20025;-73
2023/04/28 03:20:27;;;;;;;8.68;1.88;;;;;;;11.48;97.86;95803.09;5054995;28;20032;-73
2023/04/28 03:22:52;;;;;;;2.10;1.98;;;;;;;11.46;99.19;95812.00;5055317;28;20020;-73
2023/04/28 03:25:18;;;;;;;3.22;2.15;;;;;;;11.38;100.00;95811.84;5051193;28;20017;-73
2023/04/28 03:27:43;;;;;;;3.17;1.83;;;;;;;11.37;100.00;95812.84;5052599;28;20142;-74
2023/04/28 03:30:09;;;;;;;1.65;1.55;;;;;;;11.36;99.18;95813.81;5049510;28;20075;-72
2023/04/28 03:32:35;;;;;;;1.48;1.48;;;;;;;11.35;98.77;95809.50;5051644;28;20100;-72
2023/04/28 03:35:00;;;;;;;2.80;2.03;;;;;;;11.36;98.14;95810.34;5051322;28;20056;-73
2023/04/28 03:37:26;;;;;;;2.72;2.53;;;;;;;11.38;99.10;95814.50;5054152;28;20021;-72
2023/04/28 03:39:51;;;;;;;2.35;2.00;;;;;;;11.30;100.00;95817.03;5051160;28;20140;-73
2023/04/28 03:42:17;;;;;;;2.22;2.05;;;;;;;11.26;100.00;95815.66;5053087;28;20723;-72
2023/04/28 03:44:42;;;;;;;1.90;1.80;;;;;;;11.24;99.31;95813.16;5049096;28;20588;-73
2023/04/28 03:47:08;;;;;;;3.03;1.73;;;;;;;11.30;98.04;95825.78;5053760;28;20838;-73
2023/04/28 03:49:33;;;;;;;2.45;2.35;;;;;;;11.28;100.00;95834.78;5068901;28;20159;-73
2023/04/28 03:51:58;;;;;;;3.22;1.98;;;;;;;11.25;100.00;95837.72;5055129;28;20349;-73
2023/04/28 03:54:24;;;;;;;4.18;3.78;;;;;;;11.21;100.00;95839.78;5052962;28;20083;-74
2023/04/28 03:56:49;;;;;;;1.77;1.70;;;;;;;11.36;97.58;95852.53;5051976;28;20048;-73
2023/04/28 03:59:15;;;;;;;2.45;2.20;;;;;;;11.49;95.01;95857.50;5053089;28;20013;-72
2023/04/28 04:01:40;;;;;;;2.50;1.75;;;;;;;11.45;95.49;95851.66;5054638;28;20080;-71
2023/04/28 04:04:06;;;;;;;6.38;2.00;;;;;;;11.33;96.20;95853.63;5054209;28;20592;-73
2023/04/28 04:06:31;;;;;;;2.60;2.30;;;;;;;11.26;97.55;95852.56;5048992;28;20016;-74
2023/04/28 04:08:57;;;;;;;4.35;1.98;;;;;;;11.18;98.46;95850.63;5050904;28;20118;-73
2023/04/28 04:11:22;;;;;;;2.55;1.83;;;;;;;11.16;98.71;95850.78;5051820;28;20013;-74
2023/04/28 04:13:48;;;;;;;3.10;2.10;;;;;;;11.17;99.71;95849.81;5051502;28;20016;-73
2023/04/28 04:16:16;;;;;;;2.35;1.90;;;;;;;11.18;98.33;95843.56;5049090;28;20108;-73
2023/04/28 04:18:41;;;;;;;2.03;1.92;;;;;;;11.26;97.92;95842.00;5055039;28;20021;-73
2023/04/28 04:21:07;;;;;;;6.07;2.00;;;;;;;11.39;96.51;95839.06;5049511;28;20031;-74
2023/04/28 04:23:32;;;;;;;3.97;1.90;;;;;;;11.34;98.27;95838.66;5047166;28;20029;-75
2023/04/28 04:25:58;;;;;;;2.53;2.13;;;;;;;11.31;98.50;95839.78;5050478;28;20021;-75
2023/04/28 04:28:23;;;;;;;2.55;1.80;;;;;;;11.30;97.94;95838.13;5068122;28;20021;-75
2023/04/28 04:30:48;;;;;;;1.90;1.77;;;;;;;11.37;96.30;95835.75;5053240;28;20481;-75
2023/04/28 04:33:14;;;;;;;3.45;2.03;;;;;;;11.33;96.78;95835.19;5067793;28;20226;-73
2023/04/28 04:35:39;;;;;;;3.25;1.98;;;;;;;11.31;95.95;95830.06;5050512;28;20115;-73
2023/04/28 04:38:06;;;;;;;2.00;1.80;;;;;;;11.32;95.65;95831.75;5051168;28;20063;-73
2023/04/28 04:40:31;;;;;;;3.95;1.85;;;;;;;11.39;95.53;95823.25;5048503;28;20386;-72
2023/04/28 04:42:57;;;;;;;5.65;1.95;;;;;;;11.30;96.29;95817.88;5052597;28;20039;-73
2023/04/28 04:45:22;;;;;;;2.22;2.03;;;;;;;11.33;97.03;95816.75;5048828;28;20024;-73
2023/04/28 04:47:48;;;;;;;2.58;2.40;;;;;;;11.29;97.37;95821.50;5051989;28;20075;-74
2023/04/28 04:50:13;;;;;;;2.75;2.55;;;;;;;11.29;98.41;95813.59;5053749;28;20017;-75
2023/04/28 04:52:39;;;;;;;3.92;1.95;;;;;;;11.30;98.65;95817.88;5051141;28;20025;-73
2023/04/28 04:55:05;;;;;;;4.32;2.20;;;;;;;11.42;96.95;95825.59;5047261;28;20070;-74
2023/04/28 04:57:30;;;;;;;9.55;2.78;;;;;;;11.53;95.44;95824.59;5051623;28;20028;-74
2023/04/28 04:59:56;;;;;;;3.53;2.00;;;;;;;11.48;95.33;95824.19;5052312;28;20017;-74
2023/04/28 05:02:21;;;;;;;2.78;2.38;;;;;;;11.47;95.78;95820.72;5043646;28;20056;-74
2023/04/28 05:04:47;;;;;;;3.30;2.38;;;;;;;11.43;97.40;95822.81;5051480;28;20116;-74
2023/04/28 05:07:12;;;;;;;2.75;2.38;;;;;;;11.44;96.47;95824.50;5050753;28;20032;-74
2023/04/28 05:09:38;;;;;;;2.90;1.95;;;;;;;11.52;96.03;95825.56;5051119;28;20029;-74
2023/04/28 05:12:03;;;;;;;2.33;2.20;;;;;;;11.52;95.76;95822.91;5051895;28;20116;-74
2023/04/28 05:14:29;;;;;;;11.02;2.30;;;;;;;11.44;95.64;95824.50;5047089;28;20086;-76
2023/04/28 05:16:54;;;;;;;4.05;2.28;;;;;;;11.45;95.70;95830.56;5053176;28;20248;-77
2023/04/28 05:19:20;;;;;;;2.53;2.30;;;;;;;11.38;97.00;95838.22;5053677;28;20524;-75
2023/04/28 05:21:46;;;;;;;2.50;2.30;;;;;;;11.38;97.17;95834.78;5052778;28;20557;-75
2023/04/28 05:24:13;;;;;;;4.22;2.88;;;;;;;11.34;97.52;95828.94;5052335;28;20024;-77
2023/04/28 05:26:39;;;;;;;2.92;2.45;;;;;;;11.37;97.25;95826.00;5046161;28;20052;-75
2023/04/28 05:29:04;;;;;;;3.42;2.65;;;;;;;11.45;97.45;95835.84;5046033;28;20028;-76
2023/04/28 05:31:29;;;;;;;4.15;2.85;;;;;;;11.54;97.45;95840.28;5050801;28;20028;-76
2023/04/28 05:33:55;;;;;;;5.40;2.60;;;;;;;11.65;98.08;95841.06;5048247;28;20413;-73
2023/04/28 05:36:20;;;;;;;2.53;2.33;;;;;;;11.69;97.34;95848.53;5042183;28;20036;-73
2023/04/28 05:38:46;;;;;;;2.70;2.50;;;;;;;11.72;96.24;95848.25;5049097;28;20048;-75
2023/04/28 05:41:12;;;;;;;4.13;2.50;;;;;;;11.80;95.47;95847.53;5046115;28;20037;-74
2023/04/28 05:43:37;;;;;;;4.45;4.03;;;;;;;11.83;95.68;95857.78;5050932;28;20029;-76
2023/04/28 05:46:02;;;;;;;6.50;3.05;;;;;;;11.84;94.70;95853.34;5054687;28;20039;-73
2023/04/28 05:48:28;;;;;;;2.92;2.72;;;;;;;11.86;94.59;95848.75;5052253;28;20401;-73
2023/04/28 05:50:53;;;;;;;3.08;2.70;;;;;;;11.89;95.00;95851.09;5049502;28;20108;-77
2023/04/28 05:53:19;;;;;;;10.52;2.80;;;;;;;11.87;95.80;95851.22;5053461;28;20030;-74
2023/04/28 05:55:44;;;;;;;7.43;2.40;;;;;;;12.01;95.70;95842.03;5056133;28;20033;-71
2023/04/28 05:58:10;;;;;;;3.55;2.20;;;;;;;12.04;97.49;95835.63;5056357;28;20035;-74
2023/04/28 06:00:35;;;;;;;5.78;2.30;;;;;;;12.14;97.28;95832.94;5054585;28;20029;-76
2023/04/28 06:03:00;;;;;;;4.28;2.03;;;;;;;12.23;95.42;95834.66;5055839;28;20028;-74
2023/04/28 06:05:26;;;;;;;2.42;2.22;;;;;;;12.38;94.75;95834.16;5054221;28;20110;-73
2023/04/28 06:07:52;;;;;;;8.10;2.65;;;;;;;12.49;95.82;95833.97;5053369;28;20027;-72
2023/04/28 06:10:18;;;;;;;4.32;2.45;;;;;;;12.52;92.93;95831.03;5054990;28;20154;-74
2023/04/28 06:12:43;;;;;;;4.90;2.25;;;;;;;12.66;91.02;95829.66;5055230;28;20037;-76
2023/04/28 06:15:09;;;;;;;3.80;2.25;;;;;;;12.69;92.93;95829.34;5069461;28;20048;-75
2023/04/28 06:17:35;;;;;;;11.13;2.60;;;;;;;12.95;90.72;95828.56;5056281;28;20052;-75
2023/04/28 06:20:00;;;;;;;4.72;3.00;;;;;;;12.96;88.53;95826.75;5054386;28;20036;-75
2023/04/28 06:22:26;;;;;;;4.60;2.72;;;;;;;12.99;88.24;95834.38;5050710;28;20083;-75
2023/04/28 06:24:51;;;;;;;3.00;2.15;;;;;;;13.03;86.43;95833.91;5053046;28;20162;-75
2023/04/28 06:27:17;;;;;;;5.43;4.80;;;;;;;13.12;86.29;95841.91;5045540;28;20025;-75
2023/04/28 06:29:43;;;;;;;10.35;6.38;;;;;;;13.17;85.50;95831.69;5055496;28;20033;-75
2023/04/28 06:32:08;;;;;;;8.60;6.00;;;;;;;13.33;85.62;95836.25;5050764;28;20036;-75
2023/04/28 06:34:34;;;;;;;4.57;3.42;;;;;;;13.50;84.22;95839.03;5053802;28;20473;-74
2023/04/28 06:37:00;;;;;;;7.65;2.90;;;;;;;13.59;83.46;95832.78;5050719;28;20036;-75
2023/04/28 06:39:26;;;;;;;4.30;2.28;;;;;;;13.77;80.32;95831.91;5054362;28;20094;-74
2023/04/28 06:41:51;;;;;;;2.88;2.00;;;;;;;13.85;78.58;95838.06;5055986;28;20111;-74
2023/04/28 06:44:17;;;;;;;3.95;2.13;;;;;;;13.85;79.83;95832.75;5052832;28;20194;-74
2023/04/28 06:46:42;;;;;;;2.90;2.00;;;;;;;13.93;79.36;95842.56;5051471;28;20046;-74
2023/04/28 06:49:08;;;;;;;2.58;1.90;;;;;;;13.96;80.55;95841.41;5054023;28;20028;-74
2023/04/28 06:51:33;;;;;;;2.28;2.08;;;;;;;14.06;80.89;95847.41;5055345;28;20052;-74
2023/04/28 06:53:59;;;;;;;2.90;2.13;;;;;;;14.23;79.17;95842.97;5055556;28;20033;-74
2023/04/28 06:56:25;;;;;;;6.68;1.95;;;;;;;14.29;79.37;95847.66;5054982;28;20436;-74
2023/04/28 06:58:55;;;;;;;4.28;2.30;;;;;;;14.25;79.91;95848.94;5054094;28;20029;-74
2023/04/28 07:01:20;;;;;;;5.38;2.55;;;;;;;14.21;82.06;95844.97;5054838;28;20460;-74
2023/04/28 07:03:45;;;;;;;5.78;2.45;;;;;;;14.25;83.71;95850.78;5052681;28;20032;-74
2023/04/28 07:06:11;;;;;;;2.78;2.42;;;;;;;14.34;81.47;95857.75;5054901;28;20055;-74
2023/04/28 07:08:37;;;;;;;2.30;2.20;;;;;;;14.42;79.67;95852.50;5054894;28;20120;-74
2023/04/28 07:11:03;;;;;;;5.82;2.10;;;;;;;14.55;79.06;95865.25;5052065;28;20107;-74
2023/04/28 07:13:29;;;;;;;2.33;2.15;;;;;;;14.57;77.74;95862.44;5068250;28;20025;-74
2023/04/28 07:15:55;;;;;;;3.17;1.85;;;;;;;14.66;75.83;95863.28;5050838;28;20107;-74
2023/04/28 07:18:20;;;;;;;3.15;2.08;;;;;;;14.70;74.00;95864.59;5052194;28;20102;-74
2023/04/28 07:20:47;;;;;;;3.58;2.30;;;;;;;14.93;74.38;95853.41;5051964;28;20095;-74
2023/04/28 07:23:12;;;;;;;10.38;4.93;;;;;;;15.11;74.86;95859.34;5052080;28;20116;-74
2023/04/28 07:25:39;;;;;;;6.13;4.78;;;;;;;15.10;73.06;95855.06;5049610;28;20053;-74
2023/04/28 07:28:05;;;;;;;4.80;2.83;;;;;;;15.09;73.30;95857.88;5047714;28;20032;-74
2023/04/28 07:30:31;;;;;;;5.78;2.72;;;;;;;15.09;76.05;95855.25;5051769;28;20483;-73
2023/04/28 07:32:57;;;;;;;7.20;3.53;;;;;;;15.23;75.13;95851.88;5047613;28;20029;-74
2023/04/28 07:35:23;;;;;;;9.80;5.30;;;;;;;15.35;72.34;95847.06;5049072;28;20127;-74
2023/04/28 07:37:48;;;;;;;9.32;5.65;;;;;;;16.09;70.09;95847.91;5054555;28;20052;-74
2023/04/28 07:40:14;;;;;;;7.70;4.38;;;;;;;16.59;67.31;95845.81;5051547;28;20024;-74
2023/04/28 07:42:40;;;;;;;3.75;3.00;;;;;;;16.84;65.56;95850.97;5053189;28;20036;-74
2023/04/28 07:45:06;;;;;;;4.72;3.00;;;;;;;17.33;64.69;95853.25;5053881;28;20028;-74
2023/04/28 07:47:31;;;;;;;5.30;3.38;;;;;;;18.00;61.68;95855.22;5049250;28;20021;-74
2023/04/28 07:49:58;;;;;;;2.28;2.17;;;;;;;17.95;61.04;95863.75;5050882;28;20378;-74
2023/04/28 07:52:24;;;;;;;3.20;1.60;;;;;;;18.17;61.33;95869.19;5052967;28;20040;-74
2023/04/28 07:54:49;;;;;;;1.50;1.40;;;;;;;18.63;58.83;95864.59;5050144;28;20076;-74
2023/04/28 07:57:14;;;;;;;1.55;1.48;;;;;;;19.17;57.43;95874.00;5049327;28;20028;-74
2023/04/28 07:59:40;;;;;;;2.15;1.65;;;;;;;19.55;55.67;95870.19;5054589;28;20121;-74
2023/04/28 08:02:06;;;;;;;6.78;2.20;;;;;;;19.45;56.24;95868.69;5051925;28;20496;-74
2023/04/28 08:04:33;;;;;;;3.30;1.85;;;;;;;19.00;55.00;95868.91;5053578;28;20029;-74
2023/04/28 08:06:59;;;;;;;2.42;1.67;;;;;;;18.42;56.22;95875.06;5053303;28;20154;-74
2023/04/28 08:09:25;;;;;;;2.28;1.48;;;;;;;18.27;57.55;95872.41;5053011;28;20037;-74
2023/04/28 08:11:50;;;;;;;1.52;1.42;;;;;;;18.16;57.01;95872.88;5054818;28;20029;-73
2023/04/28 08:14:16;;;;;;;2.20;1.30;;;;;;;18.52;57.20;95869.44;5052858;28;20039;-74
2023/04/28 08:16:42;;;;;;;1.30;1.20;;;;;;;18.98;56.96;95872.78;5052199;28;20021;-74
2023/04/28 08:19:08;;;;;;;1.13;1.13;;;;;;;19.67;53.86;95879.31;5052756;28;20070;-74
2023/04/28 08:21:33;;;;;;;1.10;1.10;;;;;;;20.11;52.10;95881.88;5049604;28;20071;-74
2023/04/28 08:23:59;;;;;;;1.65;1.40;;;;;;;20.16;51.46;95877.59;5054529;28;20515;-74
2023/04/28 08:26:24;;;;;;;1.17;1.17;;;;;;;19.95;52.01;95875.84;5052407;28;20028;-74
2023/04/28 08:28:50;;;;;;;1.40;1.27;;;;;;;19.98;51.65;95885.31;5053324;28;20104;-74
2023/04/28 08:31:15;;;;;;;1.20;1.20;;;;;;;20.06;49.99;95885.13;5049482;28;20028;-75
2023/04/28 08:33:43;;;;;;;1.38;1.20;;;;;;;20.76;49.10;95870.84;5053583;28;20024;-74
2023/04/28 08:36:10;;;;;;;4.18;1.85;;;;;;;21.74;47.93;95868.69;5054668;28;20029;-74
2023/04/28 08:38:37;;;;;;;2.15;1.63;;;;;;;22.43;46.23;95869.13;5051431;28;20056;-74
2023/04/28 08:41:04;;;;;;;2.40;1.55;;;;;;;22.79;44.78;95874.16;5054578;28;20025;-75
2023/04/28 08:43:33;;;;;;;1.52;1.42;;;;;;;23.01;42.82;95861.19;5050244;28;20028;-75
2023/04/28 08:46:02;;;;;;;1.50;1.40;;;;;;;22.96;43.33;95863.72;5053517;28;20021;-75
2023/04/28 08:48:32;;;;;;;2.67;1.23;;;;;;;22.71;43.56;95859.94;5050618;28;20024;-74
2023/04/28 08:50:58;;;;;;;1.65;1.40;;;;;;;22.27;44.50;95854.31;5053132;28;20028;-75
2023/04/28 08:53:25;;;;;;;1.60;1.50;;;;;;;22.23;46.12;95853.13;5054145;28;20112;-73
2023/04/28 08:55:55;;;;;;;3.15;1.17;;;;;;;22.97;43.70;95849.25;5054062;28;20025;-75
2023/04/28 08:58:25;;;;;;;1.48;1.38;;;;;;;23.11;44.95;95856.19;5055760;28;20031;-75
2023/04/28 09:00:52;;;;;;;1.63;1.35;;;;;;;23.04;43.08;95847.34;5054465;28;20025;-75
2023/04/28 09:03:18;;;;;;;1.75;1.48;;;;;;;22.40;44.33;95852.63;5054231;28;20032;-75
2023/04/28 09:05:43;;;;;;;2.65;1.48;;;;;;;22.27;45.05;95850.81;5054634;28;20017;-75
2023/04/28 09:08:11;;;;;;;1.20;1.20;;;;;;;21.99;42.07;95852.75;5048478;28;20044;-76
2023/04/28 09:10:37;;;;;;;1.67;1.15;;;;;;;21.77;43.79;95857.56;5054105;28;20028;-75
2023/04/28 09:13:03;;;;;;;1.55;1.20;;;;;;;21.71;44.49;95861.06;5053382;28;20839;-75
2023/04/28 09:15:30;;;;;;;4.05;1.08;;;;;;;21.23;45.31;95873.63;5050468;28;20036;-75
2023/04/28 09:17:55;;;;;;;1.30;1.05;;;;;;;21.59;45.98;95863.53;5053022;28;20461;-76
2023/04/28 09:20:23;;;;;;;1.00;1.00;;;;;;;22.29;42.19;95867.50;5054154;28;20021;-76
2023/04/28 09:22:50;;;;;;;1.40;1.30;;;;;;;22.72;41.35;95866.94;5049288;28;20029;-76
2023/04/28 09:25:16;;;;;;;3.50;1.85;;;;;;;22.89;41.42;95871.81;5053613;28;20025;-76
2023/04/28 09:27:41;;;;;;;4.15;1.60;;;;;;;22.71;42.37;95865.28;5057219;28;20514;-76
2023/04/28 09:30:08;;;;;;;3.67;1.27;;;;;;;23.02;42.76;95863.69;5058251;28;20100;-76
2023/04/28 09:32:35;;;;;;;3.13;1.20;;;;;;;23.05;42.55;95862.41;5057752;28;20373;-75
2023/04/28 09:35:01;;;;;;;2.85;1.30;;;;;;;22.94;41.41;95865.81;5057768;28;20029;-75
2023/04/28 09:37:30;;;;;;;1.30;1.15;;;;;;;22.60;42.13;95866.78;5057849;28;20028;-76
2023/04/28 09:40:02;;;;;;;1.20;0.95;;;;;;;23.15;40.71;95870.81;5057329;28;20095;-76
2023/04/28 09:42:42;;;;;;;1.00;1.00;;;;;;;23.11;40.13;95861.56;5058125;28;20093;-76
2023/04/28 09:45:08;;;;;;;1.15;1.08;;;;;;;23.38;38.60;95849.81;5057958;28;20017;-76
2023/04/28 09:47:46;;;;;;;2.55;1.33;;;;;;;23.60;40.02;95843.00;5057444;28;20516;-75
2023/04/28 09:50:15;;;;;;;1.30;1.20;;;;;;;23.57;37.84;95845.31;5056419;28;20029;-76
2023/04/28 09:52:43;;;;;;;1.20;1.20;;;;;;;24.46;39.20;95830.75;5057638;28;20032;-76
2023/04/28 09:55:10;;;;;;;1.10;1.10;;;;;;;24.64;38.48;95826.34;5056809;28;20037;-76
2023/04/28 09:57:37;;;;;;;1.35;1.25;;;;;;;25.07;38.89;95814.56;5057079;28;20033;-73
2023/04/28 10:00:05;;;;;;;1.67;1.42;;;;;;;25.01;39.12;95815.50;5048207;28;20029;-74
2023/04/28 10:02:32;;;;;;;2.33;1.33;;;;;;;24.91;36.24;95812.56;5056911;28;20362;-75
2023/04/28 10:04:58;;;;;;;7.88;1.08;;;;;;;24.79;37.20;95810.63;5057146;28;20036;-76
2023/04/28 10:07:25;;;;;;;2.20;1.33;;;;;;;24.66;39.05;95805.44;5057403;28;20021;-73
2023/04/28 10:09:51;;;;;;;3.75;1.23;;;;;;;24.93;38.49;95799.69;5057351;28;20055;-74
2023/04/28 10:12:17;;;;;;;1.58;1.10;;;;;;;25.03;38.35;95802.63;5053700;28;20070;-76
2023/04/28 10:14:43;;;;;;;4.55;1.90;;;;;;;25.21;38.28;95801.75;5057279;28;20036;-76
2023/04/28 10:17:13;;;;;;;31.13;2.13;;;;;;;25.54;38.53;95799.56;5056705;28;20362;-76
2023/04/28 10:19:41;;;;;;;3.28;1.65;;;;;;;25.18;39.71;95796.78;5057624;28;20428;-73
2023/04/28 10:22:35;;;;;;;5.85;1.80;;;;;;;25.51;40.08;95794.63;5057486;28;20025;-77
2023/04/28 10:25:13;;;;;;;2.92;1.55;;;;;;;25.99;37.33;95790.00;5042020;28;20154;-73
2023/04/28 10:27:43;;;;;;;2.40;1.52;;;;;;;25.85;38.87;95794.84;5046206;28;20421;-73
2023/04/28 10:30:13;;;;;;;2.63;2.00;;;;;;;26.81;36.58;95788.09;5055644;28;20035;-73
2023/04/28 10:32:39;;;;;;;3.42;1.40;;;;;;;26.68;36.41;95799.22;5057127;28;20024;-73
2023/04/28 10:35:20;;;;;;;2.80;1.70;;;;;;;26.12;37.78;95789.75;5055712;28;20021;-73
2023/04/28 10:38:13;;;;;;;8.73;1.60;;;;;;;26.34;36.38;95791.00;5046801;28;20025;-74
2023/04/28 10:40:38;;;;;;;2.67;1.67;;;;;;;26.91;36.35;95792.06;5044507;28;20025;-73
2023/04/28 10:43:06;;;;;;;2.70;1.80;;;;;;;25.52;40.17;95791.69;5056265;28;20036;-72
2023/04/28 10:45:50;;;;;;;2.85;2.03;;;;;;;25.31;40.37;95787.66;5056594;28;20023;-75
2023/04/28 10:48:15;;;;;;;3.40;1.67;;;;;;;24.78;41.71;95782.09;5053510;28;20036;-76
2023/04/28 10:51:08;;;;;;;1.88;1.70;;;;;;;25.45;39.24;95780.19;5048384;28;20108;-76
2023/04/28 10:53:43;;;;;;;3.10;1.40;;;;;;;26.24;37.24;95788.91;5056464;28;20017;-76
2023/04/28 10:56:20;;;;;;;2.28;1.98;;;;;;;25.64;38.90;95774.69;5055681;28;20086;-76
2023/04/28 10:58:50;;;;;;;2.00;1.85;;;;;;;25.52;39.87;95769.31;5056794;28;20035;-75
2023/04/28 11:01:23;;;;;;;4.78;2.13;;;;;;;25.79;38.08;95766.13;5052177;28;20024;-74
2023/04/28 11:04:02;;;;;;;2.25;2.10;;;;;;;25.48;39.17;95762.75;5056045;28;20107;-76
2023/04/28 11:06:35;;;;;;;6.07;2.22;;;;;;;25.67;38.52;95758.88;5054743;28;20021;-74
2023/04/28 11:09:13;;;;;;;5.13;2.75;;;;;;;25.09;40.96;95752.41;5056120;28;20047;-75
2023/04/28 11:11:59;;;;;;;4.20;2.90;;;;;;;25.22;41.02;95751.34;5044263;28;20021;-74
2023/04/28 11:14:24;;;;;;;3.38;2.58;;;;;;;25.71;41.08;95748.44;5048971;28;20506;-75
2023/04/28 11:16:53;;;;;;;3.88;2.30;;;;;;;26.21;38.91;95749.75;5050992;28;20059;-76
2023/04/28 11:19:21;;;;;;;2.22;2.03;;;;;;;26.55;38.20;95757.94;5056096;28;20048;-74
2023/04/28 11:21:47;;;;;;;5.10;2.08;;;;;;;26.48;38.59;95754.56;5055598;28;20048;-75
2023/04/28 11:24:13;;;;;;;2.22;2.03;;;;;;;26.08;40.81;95739.22;5055985;28;20028;-75
2023/04/28 11:26:40;;;;;;;2.67;2.00;;;;;;;26.57;39.82;95747.72;5055315;28;20078;-75
2023/04/28 11:29:06;;;;;;;3.33;2.30;;;;;;;26.69;39.75;95753.06;5055689;28;20035;-74
2023/04/28 11:31:32;;;;;;;2.03;1.90;;;;;;;26.95;39.23;95736.50;5055631;28;20025;-76